createdAt,value
2022-11-15T00:02:07.119Z,4.30
2022-11-15T00:05:49.293Z,5.95
2022-11-15T00:09:31.146Z,4.03
2022-11-15T00:13:14.343Z,6.03
2022-11-15T00:16:56.196Z,8.65
2022-11-15T00:20:38.033Z,3.85
2022-11-15T00:24:20.117Z,5.88
2022-11-15T00:28:02.788Z,5.63
2022-11-15T00:31:44.666Z,4.63
2022-11-15T00:35:26.616Z,6.38
2022-11-15T00:39:08.616Z,5.97
2022-11-15T00:42:50.482Z,7.13
2022-11-15T00:46:32.467Z,6.95
2022-11-15T00:50:15.494Z,4.07
2022-11-15T00:53:57.689Z,4.88
2022-11-15T00:57:39.527Z,4.57
2022-11-15T01:01:21.432Z,5.35
2022-11-15T01:05:03.446Z,6.82
2022-11-15T01:08:45.323Z,4.82
2022-11-15T01:12:27.235Z,7.28
2022-11-15T01:16:15.264Z,4.43
2022-11-15T01:19:57.123Z,5.97
2022-11-15T01:23:39.711Z,4.68
2022-11-15T01:27:21.625Z,7.05
2022-11-15T01:31:06.518Z,5.07
2022-11-15T01:34:48.374Z,4.47
2022-11-15T01:38:30.237Z,4.30
2022-11-15T01:42:15.348Z,5.38
2022-11-15T01:46:07.900Z,7.38
2022-11-15T01:50:03.391Z,4.93
2022-11-15T01:53:49.133Z,7.78
2022-11-15T01:57:31.198Z,5.75
2022-11-15T02:01:14.595Z,8.00
2022-11-15T02:04:56.612Z,6.93
2022-11-15T02:08:38.516Z,7.20
2022-11-15T02:12:22.428Z,3.33
2022-11-15T02:16:17.598Z,4.68
2022-11-15T02:20:08.580Z,5.35
2022-11-15T02:24:19.182Z,6.95
2022-11-15T02:28:36.295Z,4.97
2022-11-15T02:32:30.807Z,5.25
2022-11-15T02:37:03.165Z,3.67
2022-11-15T02:40:58.030Z,4.82
2022-11-15T02:44:46.352Z,6.45
2022-11-15T02:48:28.960Z,4.22
2022-11-15T02:52:15.236Z,5.03
2022-11-15T02:55:59.116Z,4.28
2022-11-15T03:00:02.621Z,2.50
2022-11-15T03:03:59.229Z,3.33
2022-11-15T03:07:54.805Z,3.03
2022-11-15T03:11:47.314Z,2.13
2022-11-15T03:15:38.022Z,1.58
2022-11-15T03:19:34.672Z,2.92
2022-11-15T03:23:17.625Z,1.17
2022-11-15T03:27:02.084Z,1.58
2022-11-15T03:30:46.882Z,1.73
2022-11-15T03:34:32.407Z,1.48
2022-11-15T03:38:30.571Z,1.90
2022-11-15T03:42:33.157Z,0.98
2022-11-15T03:46:24.952Z,0.82
2022-11-15T03:50:16.356Z,0.73
2022-11-15T03:53:58.320Z,1.38
2022-11-15T03:57:40.274Z,0.40
2022-11-15T04:01:22.172Z,4.30
2022-11-15T04:05:04.863Z,1.05
2022-11-15T04:08:46.686Z,0.40
2022-11-15T04:12:34.681Z,0.68
2022-11-15T04:16:16.538Z,2.72
2022-11-15T04:20:17.163Z,0.70
2022-11-15T04:24:14.201Z,0.77
2022-11-15T04:27:56.042Z,0.77
2022-11-15T04:31:37.880Z,0.90
2022-11-15T04:35:19.844Z,0.50
2022-11-15T04:39:01.701Z,2.65
2022-11-15T04:42:43.773Z,0.82
2022-11-15T04:46:25.999Z,1.02
2022-11-15T04:50:08.268Z,2.17
2022-11-15T04:53:50.113Z,1.35
2022-11-15T04:57:31.986Z,2.70
2022-11-15T05:01:15.787Z,1.45
2022-11-15T05:04:57.708Z,1.35
2022-11-15T05:08:39.507Z,2.17
2022-11-15T05:12:21.383Z,2.83
2022-11-15T05:16:03.294Z,0.98
2022-11-15T05:19:45.762Z,1.52
2022-11-15T05:23:27.590Z,1.55
2022-11-15T05:27:09.467Z,1.92
2022-11-15T05:30:51.288Z,1.73
2022-11-15T05:34:33.573Z,1.73
2022-11-15T05:38:15.719Z,1.83
2022-11-15T05:42:03.417Z,1.38
2022-11-15T05:45:45.434Z,1.60
2022-11-15T05:49:35.415Z,1.20
2022-11-15T05:53:21.373Z,1.35
2022-11-15T05:57:03.590Z,1.87
2022-11-15T06:00:45.728Z,2.28
2022-11-15T06:04:27.721Z,1.70
2022-11-15T06:08:09.590Z,1.83
2022-11-15T06:11:51.477Z,1.73
2022-11-15T06:15:37.406Z,1.77
2022-11-15T06:19:19.284Z,3.10
2022-11-15T06:23:05.287Z,1.35
2022-11-15T06:26:47.121Z,2.20
2022-11-15T06:30:29.098Z,1.50
2022-11-15T06:34:11.145Z,2.55
2022-11-15T06:37:52.975Z,1.42
2022-11-15T06:41:37.954Z,1.23
2022-11-15T06:45:19.824Z,1.27
2022-11-15T06:49:05.292Z,2.15
2022-11-15T06:52:51.175Z,3.05
2022-11-15T06:56:34.456Z,2.40
2022-11-15T07:00:17.844Z,5.45
2022-11-15T07:03:59.739Z,2.22
2022-11-15T07:07:41.904Z,1.15
2022-11-15T07:11:23.745Z,1.42
2022-11-15T07:15:06.177Z,1.15
2022-11-15T07:18:48.085Z,3.05
2022-11-15T07:22:29.917Z,2.70
2022-11-15T07:26:11.781Z,2.88
2022-11-15T07:29:53.718Z,1.80
2022-11-15T07:33:36.547Z,3.88
2022-11-15T07:37:18.412Z,1.27
2022-11-15T07:41:02.248Z,1.67
2022-11-15T07:44:44.064Z,1.17
2022-11-15T07:48:26.096Z,0.95
2022-11-15T07:52:11.193Z,1.27
2022-11-15T07:55:54.536Z,1.17
2022-11-15T07:59:36.406Z,1.90
2022-11-15T08:03:18.612Z,1.02
2022-11-15T08:07:00.537Z,1.27
2022-11-15T08:10:42.614Z,0.98
2022-11-15T08:14:24.500Z,0.98
2022-11-15T08:18:12.946Z,0.60
2022-11-15T08:21:54.786Z,1.15
2022-11-15T08:25:36.939Z,1.63
2022-11-15T08:29:18.774Z,1.35
2022-11-15T08:33:00.698Z,2.10
2022-11-15T08:36:45.926Z,0.95
2022-11-15T08:40:28.129Z,1.48
2022-11-15T08:44:10.003Z,0.98
2022-11-15T08:47:54.477Z,3.88
2022-11-15T08:51:36.604Z,2.25
2022-11-15T08:55:18.646Z,1.83
2022-11-15T08:59:00.477Z,3.50
2022-11-15T09:02:42.440Z,1.50
2022-11-15T09:06:24.258Z,1.17
2022-11-15T09:10:06.372Z,1.50
2022-11-15T09:13:48.308Z,0.93
2022-11-15T09:17:30.180Z,0.70
2022-11-15T09:21:12.241Z,1.27
2022-11-15T09:24:54.122Z,1.65
2022-11-15T09:28:37.363Z,0.70
2022-11-15T09:32:19.213Z,1.05
2022-11-15T09:36:03.333Z,1.85
2022-11-15T09:39:45.278Z,1.42
2022-11-15T09:43:35.996Z,0.80
2022-11-15T09:47:43.321Z,0.93
2022-11-15T09:51:49.314Z,2.47
2022-11-15T09:55:48.181Z,1.33
2022-11-15T09:59:55.805Z,1.58
2022-11-15T10:03:42.902Z,0.40
2022-11-15T10:07:27.575Z,0.45
2022-11-15T10:15:17.054Z,3.40
2022-11-15T10:19:11.581Z,4.10
2022-11-15T10:22:53.389Z,1.65
2022-11-15T10:26:35.240Z,5.18
2022-11-15T10:30:19.349Z,6.13
2022-11-15T10:34:36.665Z,3.42
2022-11-15T10:38:18.489Z,4.53
2022-11-15T10:42:18.951Z,6.35
2022-11-15T10:46:44.942Z,2.53
2022-11-15T10:50:33.235Z,3.15
2022-11-15T10:54:22.359Z,4.20
2022-11-15T10:58:21.352Z,4.38
2022-11-15T11:02:03.252Z,5.00
2022-11-15T11:05:45.133Z,4.03
2022-11-15T11:09:38.731Z,4.55
2022-11-15T11:13:26.506Z,4.25
2022-11-15T11:17:18.002Z,3.28
2022-11-15T11:21:09.321Z,4.45
2022-11-15T11:25:02.285Z,3.08
2022-11-15T11:28:46.996Z,4.68
2022-11-15T11:32:31.833Z,4.93
2022-11-15T11:36:19.352Z,4.55
2022-11-15T11:40:16.190Z,4.60
2022-11-15T11:44:03.991Z,2.67
2022-11-15T11:48:12.199Z,5.47
2022-11-15T11:52:09.124Z,3.97
2022-11-15T11:55:57.465Z,2.70
2022-11-15T11:59:55.663Z,2.60
2022-11-15T12:03:58.271Z,5.05
2022-11-15T12:07:41.690Z,5.82
2022-11-15T12:11:36.452Z,6.10
2022-11-15T12:15:47.868Z,4.28
2022-11-15T12:19:31.252Z,5.50
2022-11-15T12:23:25.413Z,3.22
2022-11-15T12:27:33.100Z,6.35
2022-11-15T12:31:17.772Z,4.30
2022-11-15T12:35:01.335Z,4.20
2022-11-15T12:38:58.124Z,5.18
2022-11-15T12:42:58.118Z,5.25
2022-11-15T12:46:39.950Z,4.57
2022-11-15T12:50:55.488Z,4.13
2022-11-15T12:54:37.330Z,3.38
2022-11-15T12:58:30.542Z,3.42
2022-11-15T13:02:25.673Z,5.20
2022-11-15T13:06:11.050Z,7.38
2022-11-15T13:09:55.475Z,3.80
2022-11-15T13:13:45.606Z,5.32
2022-11-15T13:17:30.746Z,4.60
2022-11-15T13:21:43.206Z,4.65
2022-11-15T13:25:40.233Z,4.28
2022-11-15T13:29:22.194Z,5.13
2022-11-15T13:33:16.548Z,4.07
2022-11-15T13:36:58.704Z,7.15
2022-11-15T13:40:40.614Z,7.95
2022-11-15T13:44:28.069Z,6.20
2022-11-15T13:48:09.948Z,4.95
2022-11-15T13:51:55.876Z,4.68
2022-11-15T13:55:38.281Z,3.10
2022-11-15T13:59:36.122Z,5.57
2022-11-15T14:03:30.995Z,5.68
2022-11-15T14:07:22.648Z,5.05
2022-11-15T14:11:23.101Z,4.45
2022-11-15T14:15:53.103Z,3.20
2022-11-15T14:19:37.785Z,1.42
2022-11-15T14:23:24.526Z,1.73
2022-11-15T14:31:11.477Z,4.72
2022-11-15T14:34:59.335Z,1.67
2022-11-15T14:38:41.409Z,2.28
2022-11-15T14:42:24.482Z,2.97
2022-11-15T14:46:06.372Z,1.50
2022-11-15T14:49:48.515Z,2.40
2022-11-15T14:53:30.389Z,0.60
2022-11-15T14:57:12.331Z,1.15
2022-11-15T15:00:54.309Z,1.30
2022-11-15T15:04:36.175Z,1.80
2022-11-15T15:08:18.079Z,1.80
2022-11-15T15:12:05.926Z,2.92
2022-11-15T15:15:49.317Z,4.55
2022-11-15T15:19:31.161Z,3.10
2022-11-15T15:23:18.972Z,2.88
2022-11-15T15:27:00.915Z,3.75
2022-11-15T15:30:42.910Z,2.25
2022-11-15T15:34:24.829Z,3.03
2022-11-15T15:38:06.733Z,2.47
2022-11-15T15:41:51.245Z,3.13
2022-11-15T15:45:36.053Z,1.77
2022-11-15T15:49:17.926Z,5.22
2022-11-15T15:53:01.985Z,1.65
2022-11-15T15:56:43.841Z,1.98
2022-11-15T16:00:26.532Z,1.77
2022-11-15T16:04:08.479Z,3.55
2022-11-15T16:07:50.397Z,2.35
2022-11-15T16:11:32.525Z,1.42
2022-11-15T16:15:14.799Z,2.28
2022-11-15T16:18:56.891Z,3.53
2022-11-15T16:22:38.741Z,2.00
2022-11-15T16:26:27.404Z,2.60
2022-11-15T16:30:15.687Z,3.13
2022-11-15T16:33:57.886Z,2.25
2022-11-15T16:37:42.641Z,1.13
2022-11-15T16:41:24.504Z,3.65
2022-11-15T16:45:06.813Z,2.50
2022-11-15T16:48:49.601Z,2.47
2022-11-15T16:52:31.531Z,1.88
2022-11-15T16:56:31.561Z,2.60
2022-11-15T17:00:17.372Z,4.05
2022-11-15T17:04:00.160Z,4.63
2022-11-15T17:07:42.087Z,2.60
2022-11-15T17:11:23.960Z,2.75
2022-11-15T17:15:06.505Z,2.30
2022-11-15T17:18:52.122Z,2.33
2022-11-15T17:22:33.952Z,2.65
2022-11-15T17:26:35.000Z,4.70
2022-11-15T17:30:20.087Z,3.75
2022-11-15T17:34:05.739Z,4.57
2022-11-15T17:37:48.391Z,3.92
2022-11-15T17:41:30.428Z,2.28
2022-11-15T17:45:12.431Z,2.63
2022-11-15T17:48:56.083Z,5.22
2022-11-15T17:52:37.964Z,4.35
2022-11-15T17:56:22.449Z,2.63
2022-11-15T18:00:04.982Z,2.42
2022-11-15T18:03:47.280Z,2.78
2022-11-15T18:07:29.167Z,3.22
2022-11-15T18:11:20.936Z,2.88
2022-11-15T18:15:02.797Z,2.63
2022-11-15T18:18:45.069Z,3.33
2022-11-15T18:22:26.945Z,2.15
2022-11-15T18:26:11.601Z,2.72
2022-11-15T18:29:53.477Z,3.30
2022-11-15T18:33:35.826Z,5.30
2022-11-15T18:37:17.781Z,2.95
2022-11-15T18:41:07.339Z,4.53
2022-11-15T18:44:49.205Z,3.47
2022-11-15T18:48:32.677Z,3.78
2022-11-15T18:52:14.546Z,2.83
2022-11-15T18:56:08.308Z,2.95
2022-11-15T18:59:50.151Z,3.53
2022-11-15T19:03:36.989Z,1.35
2022-11-15T19:07:19.274Z,1.85
2022-11-15T19:11:10.524Z,3.53
2022-11-15T19:14:52.475Z,3.67
2022-11-15T19:18:34.432Z,1.65
2022-11-15T19:22:16.285Z,2.67
2022-11-15T19:26:00.522Z,3.38
2022-11-15T19:29:42.409Z,1.85
2022-11-15T19:33:27.857Z,3.65
2022-11-15T19:37:09.901Z,3.50
2022-11-15T19:41:01.704Z,1.95
2022-11-15T19:44:43.811Z,1.85
2022-11-15T19:48:26.488Z,4.00
2022-11-15T19:52:08.348Z,3.47
2022-11-15T19:55:58.508Z,3.10
2022-11-15T19:59:40.414Z,4.45
2022-11-15T20:03:22.264Z,2.20
2022-11-15T20:07:04.226Z,5.53
2022-11-15T20:10:47.976Z,4.30
2022-11-15T20:14:30.408Z,3.15
2022-11-15T20:18:12.692Z,2.38
2022-11-15T20:21:54.559Z,5.82
2022-11-15T20:25:38.140Z,3.05
2022-11-15T20:29:19.982Z,3.13
2022-11-15T20:33:01.968Z,3.75
2022-11-15T20:36:44.071Z,7.28
2022-11-15T20:40:25.949Z,3.10
2022-11-15T20:44:07.795Z,3.45
2022-11-15T20:47:49.665Z,5.60
2022-11-15T20:51:31.566Z,3.13
2022-11-15T20:55:13.456Z,4.15
2022-11-15T20:58:56.516Z,4.22
2022-11-15T21:02:38.831Z,4.55
2022-11-15T21:06:21.363Z,3.17
2022-11-15T21:10:21.831Z,2.58
2022-11-15T21:14:07.966Z,4.65
2022-11-15T21:17:51.085Z,2.83
2022-11-15T21:21:33.346Z,2.67
2022-11-15T21:25:15.416Z,2.20
2022-11-15T21:28:57.246Z,3.50
2022-11-15T21:32:39.211Z,4.32
2022-11-15T21:36:21.487Z,3.53
2022-11-15T21:40:04.035Z,3.67
2022-11-15T21:43:45.984Z,3.47
2022-11-15T21:47:27.932Z,3.70
2022-11-15T21:51:11.672Z,5.70
2022-11-15T21:54:53.537Z,4.75
2022-11-15T21:58:36.133Z,3.63
2022-11-15T22:02:18.287Z,3.60
2022-11-15T22:06:00.504Z,3.95
2022-11-15T22:09:42.365Z,4.28
2022-11-15T22:13:25.559Z,6.57
2022-11-15T22:17:10.469Z,5.45
2022-11-15T22:20:54.253Z,3.95
2022-11-15T22:24:36.239Z,4.28
2022-11-15T22:28:18.412Z,3.67
2022-11-15T22:32:00.371Z,3.45
2022-11-15T22:35:42.770Z,4.07
2022-11-15T22:39:24.665Z,3.72
2022-11-15T22:43:07.184Z,4.43
2022-11-15T22:46:49.157Z,5.22
2022-11-15T22:50:31.564Z,2.03
2022-11-15T22:54:13.568Z,4.07
2022-11-15T22:57:55.445Z,2.83
2022-11-15T23:01:37.339Z,3.38
2022-11-15T23:05:19.291Z,3.88
2022-11-15T23:09:01.206Z,3.17
2022-11-15T23:13:01.443Z,2.65
2022-11-15T23:16:43.394Z,3.90
2022-11-15T23:20:42.418Z,3.25
2022-11-15T23:24:25.632Z,3.05
2022-11-15T23:28:07.532Z,4.90
2022-11-15T23:32:07.931Z,2.90
2022-11-15T23:35:55.795Z,3.28
2022-11-15T23:39:37.694Z,4.32
2022-11-15T23:43:20.655Z,2.20
2022-11-15T23:47:02.564Z,4.07
2022-11-15T23:50:47.826Z,4.72
2022-11-15T23:54:30.831Z,3.85
2022-11-15T23:58:12.734Z,1.95
